createdAt,value
2023-03-26T00:06:27.384Z,91.42
2023-03-26T00:21:26.261Z,91.42
2023-03-26T00:36:27.248Z,89.67
2023-03-26T00:51:26.073Z,88.74
2023-03-26T01:06:25.795Z,87.30
2023-03-26T01:21:26.036Z,88.53
2023-03-26T01:36:26.490Z,91.25
2023-03-26T01:51:25.362Z,92.69
2023-03-26T02:06:25.355Z,91.81
2023-03-26T02:21:25.009Z,93.09
2023-03-26T02:36:24.893Z,93.30
2023-03-26T02:51:24.654Z,93.09
2023-03-26T03:06:24.529Z,92.68
2023-03-26T03:21:25.061Z,92.57
2023-03-26T03:36:24.601Z,92.63
2023-03-26T03:51:24.169Z,93.35
2023-03-26T04:06:24.912Z,92.02
2023-03-26T04:21:23.849Z,90.26
2023-03-26T04:36:24.911Z,91.30
2023-03-26T04:51:24.984Z,92.43
2023-03-26T05:06:23.306Z,91.13
2023-03-26T05:21:23.116Z,90.37
2023-03-26T05:36:23.046Z,91.60
2023-03-26T05:51:22.950Z,91.50
2023-03-26T06:06:23.865Z,90.53
2023-03-26T06:21:22.475Z,90.57
2023-03-26T06:36:22.324Z,88.23
2023-03-26T06:51:22.194Z,88.78
2023-03-26T07:06:22.047Z,93.24
2023-03-26T07:21:21.995Z,85.07
2023-03-26T07:36:24.151Z,86.50
2023-03-26T07:51:22.434Z,83.86
2023-03-26T08:06:22.498Z,80.16
2023-03-26T08:21:21.308Z,81.60
2023-03-26T08:36:23.414Z,80.33
2023-03-26T08:51:21.561Z,81.93
2023-03-26T09:06:20.976Z,82.76
2023-03-26T09:21:21.459Z,79.36
2023-03-26T09:36:21.455Z,77.89
2023-03-26T09:51:20.298Z,79.36
2023-03-26T10:06:20.227Z,91.91
2023-03-26T10:21:20.112Z,91.60
2023-03-26T10:36:19.874Z,89.91
2023-03-26T10:51:20.367Z,89.56
2023-03-26T11:06:19.519Z,87.87
2023-03-26T11:21:20.826Z,85.47
2023-03-26T11:36:19.250Z,81.34
2023-03-26T11:51:19.182Z,78.12
2023-03-26T12:06:18.969Z,78.49
2023-03-26T12:21:18.778Z,74.60
2023-03-26T12:36:19.442Z,70.03
2023-03-26T12:51:18.467Z,68.32
2023-03-26T13:06:18.244Z,66.04
2023-03-26T13:21:18.033Z,67.78
2023-03-26T13:36:23.944Z,66.55
2023-03-26T13:51:17.721Z,62.98
2023-03-26T14:06:17.555Z,64.92
2023-03-26T14:21:17.388Z,61.12
2023-03-26T14:36:17.681Z,61.56
2023-03-26T14:51:17.070Z,63.35
2023-03-26T15:06:16.968Z,65.40
2023-03-26T15:21:16.814Z,64.71
2023-03-26T15:36:16.589Z,63.21
2023-03-26T15:51:16.435Z,62.49
2023-03-26T16:06:16.297Z,65.39
2023-03-26T16:21:31.209Z,67.46
2023-03-26T16:36:16.057Z,66.98
2023-03-26T16:51:15.879Z,66.91
2023-03-26T17:06:15.951Z,68.51
2023-03-26T17:21:15.497Z,70.94
2023-03-26T17:36:15.337Z,69.43
2023-03-26T17:51:15.271Z,71.83
2023-03-26T18:06:15.137Z,72.99
2023-03-26T18:21:14.870Z,70.83
2023-03-26T18:36:14.764Z,70.32
2023-03-26T18:51:14.588Z,69.90
2023-03-26T19:06:16.153Z,68.29
2023-03-26T19:21:14.227Z,67.60
2023-03-26T19:36:14.144Z,68.39
2023-03-26T19:51:13.890Z,70.79
2023-03-26T20:06:13.755Z,69.48
2023-03-26T20:21:13.587Z,70.03
2023-03-26T20:36:13.502Z,71.20
2023-03-26T20:51:13.553Z,72.50
2023-03-26T21:06:13.256Z,70.57
2023-03-26T21:21:20.808Z,71.95
2023-03-26T21:36:12.872Z,70.81
2023-03-26T21:51:12.694Z,71.53
2023-03-26T22:06:12.520Z,72.85
2023-03-26T22:21:12.327Z,70.98
2023-03-26T22:36:23.143Z,72.36
2023-03-26T22:51:12.015Z,75.02
2023-03-26T23:06:11.901Z,75.22
2023-03-26T23:21:12.285Z,75.36
2023-03-26T23:36:11.567Z,76.23
2023-03-26T23:51:11.401Z,77.16
